createdAt,value
2018-02-15T00:01:10.922Z,0
2018-02-15T00:02:32.772Z,0
2018-02-15T00:03:54.900Z,0
2018-02-15T00:05:17.034Z,0
2018-02-15T00:06:38.910Z,0
2018-02-15T00:08:01.046Z,0
2018-02-15T00:09:23.139Z,0
2018-02-15T00:10:45.272Z,0
2018-02-15T00:12:07.407Z,0
2018-02-15T00:13:29.536Z,0
2018-02-15T00:14:51.415Z,0
2018-02-15T00:16:13.382Z,0
2018-02-15T00:17:35.283Z,0
2018-02-15T00:18:57.154Z,0
2018-02-15T00:20:19.012Z,0
2018-02-15T00:21:40.614Z,0
2018-02-15T00:23:02.736Z,0
2018-02-15T00:24:24.352Z,0
2018-02-15T00:25:45.956Z,0
2018-02-15T00:27:07.565Z,0
2018-02-15T00:28:29.191Z,0
2018-02-15T00:29:50.514Z,0
2018-02-15T00:31:12.382Z,0
2018-02-15T00:32:34.053Z,0
2018-02-15T00:33:56.185Z,0
2018-02-15T00:35:18.337Z,0
2018-02-15T00:36:40.459Z,0
2018-02-15T00:38:02.776Z,0
2018-02-15T00:39:24.640Z,0
2018-02-15T00:40:46.774Z,0
2018-02-15T00:42:08.644Z,0
2018-02-15T00:43:30.505Z,0
2018-02-15T00:44:52.243Z,0
2018-02-15T00:46:13.873Z,0
2018-02-15T00:47:35.468Z,0
2018-02-15T00:48:57.346Z,0
2018-02-15T00:50:18.994Z,0
2018-02-15T00:51:41.115Z,0
2018-02-15T00:53:03.245Z,0
2018-02-15T00:54:25.121Z,0
2018-02-15T00:55:47.248Z,0
2018-02-15T00:57:09.461Z,0
2018-02-15T00:58:31.058Z,0
2018-02-15T00:59:52.731Z,0
2018-02-15T01:01:14.598Z,0
2018-02-15T01:02:36.474Z,0
2018-02-15T01:03:58.606Z,0
2018-02-15T01:05:20.219Z,0
2018-02-15T01:06:42.374Z,0
2018-02-15T01:08:04.261Z,0
2018-02-15T01:09:26.149Z,0
2018-02-15T01:10:48.014Z,0
2018-02-15T01:12:09.085Z,0
2018-02-15T01:13:30.946Z,0
2018-02-15T01:14:53.131Z,0
2018-02-15T01:16:15.085Z,0
2018-02-15T01:17:37.205Z,0
2018-02-15T01:18:59.077Z,0
2018-02-15T01:20:21.202Z,0
2018-02-15T01:21:42.809Z,0
2018-02-15T01:23:04.706Z,0
2018-02-15T01:24:26.323Z,0
2018-02-15T01:25:48.504Z,0
2018-02-15T01:27:10.094Z,0
2018-02-15T01:28:32.077Z,0
2018-02-15T01:29:53.967Z,0
2018-02-15T01:31:15.562Z,0
2018-02-15T01:32:37.683Z,0
2018-02-15T01:33:59.852Z,0
2018-02-15T01:35:21.541Z,0
2018-02-15T01:36:43.662Z,0
2018-02-15T01:38:05.795Z,0
2018-02-15T01:39:27.653Z,0
2018-02-15T01:40:49.485Z,0
2018-02-15T01:42:11.344Z,0
2018-02-15T01:43:33.392Z,0
2018-02-15T01:44:55.289Z,0
2018-02-15T01:46:17.143Z,0
2018-02-15T01:47:38.752Z,0
2018-02-15T01:49:00.423Z,0
2018-02-15T01:50:22.341Z,0
2018-02-15T01:51:44.202Z,0
2018-02-15T01:53:05.816Z,0
2018-02-15T01:54:27.470Z,0
2018-02-15T01:55:49.608Z,0
2018-02-15T01:57:11.479Z,0
2018-02-15T01:58:33.063Z,0
2018-02-15T01:59:54.649Z,0
2018-02-15T02:01:16.864Z,0
2018-02-15T02:02:38.794Z,0
2018-02-15T02:04:00.650Z,0
2018-02-15T02:05:22.763Z,0
2018-02-15T02:06:44.523Z,0
2018-02-15T02:08:06.418Z,0
2018-02-15T02:09:28.060Z,0
2018-02-15T02:10:49.668Z,0
2018-02-15T02:12:12.053Z,0
2018-02-15T02:13:34.202Z,0
2018-02-15T02:14:56.066Z,0
2018-02-15T02:16:17.973Z,0
2018-02-15T02:17:39.986Z,0
2018-02-15T02:19:01.702Z,0
2018-02-15T02:20:23.340Z,0
2018-02-15T02:21:44.662Z,0
2018-02-15T02:23:06.383Z,0
2018-02-15T02:24:28.343Z,0
2018-02-15T02:25:49.968Z,0
2018-02-15T02:27:11.322Z,0
2018-02-15T02:28:33.182Z,0
2018-02-15T02:29:55.045Z,0
2018-02-15T02:31:17.272Z,0
2018-02-15T02:32:38.647Z,0
2018-02-15T02:34:00.054Z,0
2018-02-15T02:35:22.063Z,0
2018-02-15T02:36:44.181Z,0
2018-02-15T02:38:06.426Z,0
2018-02-15T02:39:28.302Z,0
2018-02-15T02:40:50.168Z,0
2018-02-15T02:42:12.037Z,0
2018-02-15T02:43:33.655Z,0
2018-02-15T02:44:55.535Z,0
2018-02-15T02:46:17.503Z,0
2018-02-15T02:47:39.366Z,0
2018-02-15T02:49:00.972Z,0
2018-02-15T02:50:22.652Z,0
2018-02-15T02:51:44.850Z,0
2018-02-15T02:53:07.027Z,0
2018-02-15T02:54:28.891Z,0
2018-02-15T02:55:50.793Z,0
2018-02-15T02:57:12.917Z,0
2018-02-15T02:58:34.778Z,0
2018-02-15T02:59:56.185Z,0
2018-02-15T03:01:17.783Z,0
2018-02-15T03:02:39.107Z,0
2018-02-15T03:04:00.771Z,0
2018-02-15T03:05:22.639Z,0
2018-02-15T03:06:44.612Z,0
2018-02-15T03:08:06.530Z,0
2018-02-15T03:09:28.503Z,0
2018-02-15T03:10:50.158Z,0
2018-02-15T03:12:11.512Z,0
2018-02-15T03:13:33.373Z,0
2018-02-15T03:14:54.703Z,0
2018-02-15T03:16:16.222Z,0
2018-02-15T03:17:38.079Z,0
2018-02-15T03:18:59.950Z,0
2018-02-15T03:20:21.281Z,0
2018-02-15T03:21:43.513Z,0
2018-02-15T03:23:05.178Z,0
2018-02-15T03:24:27.394Z,0
2018-02-15T03:25:48.992Z,0
2018-02-15T03:27:10.579Z,0
2018-02-15T03:28:32.713Z,0
2018-02-15T03:29:54.606Z,0
2018-02-15T03:31:16.768Z,0
2018-02-15T03:32:37.923Z,0
2018-02-15T03:33:59.786Z,0
2018-02-15T03:35:21.523Z,0
2018-02-15T03:36:43.422Z,0
2018-02-15T03:38:05.136Z,0
2018-02-15T03:39:27.095Z,0
2018-02-15T03:40:49.227Z,0
2018-02-15T03:42:11.086Z,0
2018-02-15T03:43:32.453Z,0
2018-02-15T03:44:54.315Z,0
2018-02-15T03:46:16.513Z,0
2018-02-15T03:47:38.362Z,0
2018-02-15T03:49:00.469Z,0
2018-02-15T03:50:22.218Z,0
2018-02-15T03:51:44.137Z,0
2018-02-15T03:53:06.001Z,0
2018-02-15T03:54:28.133Z,0
2018-02-15T03:55:50.049Z,0
2018-02-15T03:57:12.201Z,0
2018-02-15T03:58:33.543Z,0
2018-02-15T03:59:55.453Z,0
2018-02-15T04:01:17.183Z,0
2018-02-15T04:02:38.770Z,0
2018-02-15T04:04:00.634Z,0
2018-02-15T04:05:21.997Z,0
2018-02-15T04:06:43.863Z,0
2018-02-15T04:08:05.984Z,0
2018-02-15T04:09:27.850Z,0
2018-02-15T04:10:49.982Z,0
2018-02-15T04:12:11.893Z,0
2018-02-15T04:13:33.788Z,0
2018-02-15T04:14:55.376Z,0
2018-02-15T04:16:17.020Z,0
2018-02-15T04:17:38.670Z,0
2018-02-15T04:18:59.744Z,0
2018-02-15T04:20:21.501Z,0
2018-02-15T04:21:42.833Z,0
2018-02-15T04:23:04.709Z,0
2018-02-15T04:24:26.924Z,0
2018-02-15T04:25:48.530Z,0
2018-02-15T04:27:09.868Z,0
2018-02-15T04:28:31.593Z,0
2018-02-15T04:29:53.725Z,0
2018-02-15T04:31:15.393Z,0
2018-02-15T04:32:36.990Z,0
2018-02-15T04:33:58.848Z,0
2018-02-15T04:35:20.984Z,0
2018-02-15T04:36:42.562Z,0
2018-02-15T04:38:04.184Z,0
2018-02-15T04:39:26.293Z,0
2018-02-15T04:40:48.158Z,0
2018-02-15T04:42:09.817Z,0
2018-02-15T04:43:31.755Z,0
2018-02-15T04:44:53.939Z,0
2018-02-15T04:46:15.809Z,0
2018-02-15T04:47:37.153Z,0
2018-02-15T04:48:58.922Z,0
2018-02-15T04:50:20.773Z,0
2018-02-15T04:51:42.395Z,0
2018-02-15T04:53:04.258Z,0
2018-02-15T04:54:25.658Z,0
2018-02-15T04:55:48.027Z,0
2018-02-15T04:57:09.630Z,0
2018-02-15T04:58:31.769Z,0
2018-02-15T04:59:53.859Z,0
2018-02-15T05:01:15.214Z,0
2018-02-15T05:02:37.186Z,0
2018-02-15T05:03:58.535Z,0
2018-02-15T05:05:20.133Z,0
2018-02-15T05:06:42.088Z,0
2018-02-15T05:08:04.199Z,0
2018-02-15T05:09:26.044Z,0
2018-02-15T05:10:47.928Z,0
2018-02-15T05:12:10.059Z,0
2018-02-15T05:13:32.452Z,0
2018-02-15T05:14:54.048Z,0
2018-02-15T05:16:15.697Z,0
2018-02-15T05:17:37.433Z,0
2018-02-15T05:18:59.043Z,0
2018-02-15T05:20:21.185Z,0
2018-02-15T05:21:43.042Z,0
2018-02-15T05:23:04.966Z,0
2018-02-15T05:24:26.343Z,0
2018-02-15T05:25:48.213Z,0
2018-02-15T05:27:09.600Z,0
2018-02-15T05:28:31.202Z,0
2018-02-15T05:29:53.162Z,0
2018-02-15T05:31:15.072Z,0
2018-02-15T05:32:36.935Z,0
2018-02-15T05:33:58.542Z,0
2018-02-15T05:35:19.983Z,0
2018-02-15T05:36:41.082Z,0
2018-02-15T05:38:02.932Z,0
2018-02-15T05:39:24.642Z,0
2018-02-15T05:40:46.258Z,0
2018-02-15T05:42:07.354Z,0
2018-02-15T05:43:28.954Z,0
2018-02-15T05:44:50.578Z,0
2018-02-15T05:46:12.444Z,0
2018-02-15T05:47:34.433Z,0
2018-02-15T05:48:56.323Z,0
2018-02-15T05:50:18.361Z,0
2018-02-15T05:51:40.292Z,0
2018-02-15T05:53:02.186Z,0
2018-02-15T05:54:24.323Z,0
2018-02-15T05:55:45.932Z,0
2018-02-15T05:57:08.143Z,0
2018-02-15T05:58:30.004Z,0
2018-02-15T05:59:51.992Z,0
2018-02-15T06:01:13.344Z,0
2018-02-15T06:02:35.251Z,0
2018-02-15T06:03:56.842Z,0
2018-02-15T06:05:18.283Z,0
2018-02-15T06:06:39.920Z,0
2018-02-15T06:08:01.544Z,0
2018-02-15T06:09:23.655Z,0
2018-02-15T06:10:45.255Z,0
2018-02-15T06:12:06.892Z,0
2018-02-15T06:13:28.521Z,0
2018-02-15T06:14:50.199Z,0
2018-02-15T06:16:12.209Z,0
2018-02-15T06:17:34.086Z,0
2018-02-15T06:18:56.202Z,0
2018-02-15T06:20:17.822Z,0
2018-02-15T06:21:39.148Z,0
2018-02-15T06:23:00.833Z,0
2018-02-15T06:24:22.728Z,0
2018-02-15T06:25:43.863Z,0
2018-02-15T06:27:06.004Z,0
2018-02-15T06:28:28.957Z,0
2018-02-15T06:29:50.812Z,0
2018-02-15T06:31:12.758Z,0
2018-02-15T06:32:34.620Z,0
2018-02-15T06:33:56.780Z,0
2018-02-15T06:35:18.910Z,0
2018-02-15T06:36:41.221Z,0
2018-02-15T06:38:02.569Z,0
2018-02-15T06:39:24.440Z,0
2018-02-15T06:40:45.503Z,0
2018-02-15T06:42:06.883Z,0
2018-02-15T06:43:28.755Z,0
2018-02-15T06:44:50.143Z,0
2018-02-15T06:46:12.513Z,0
2018-02-15T06:47:34.720Z,0
2018-02-15T06:48:56.871Z,0
2018-02-15T06:50:18.760Z,5
2018-02-15T06:51:39.841Z,5
2018-02-15T06:53:01.903Z,5
2018-02-15T06:54:23.775Z,5
2018-02-15T06:55:45.370Z,5
2018-02-15T06:57:06.993Z,5
2018-02-15T06:58:29.184Z,5
2018-02-15T06:59:51.089Z,5
2018-02-15T07:01:13.164Z,5
2018-02-15T07:02:35.303Z,5
2018-02-15T07:03:57.524Z,5
2018-02-15T07:05:19.421Z,5
2018-02-15T07:06:41.402Z,5
2018-02-15T07:08:02.721Z,10
2018-02-15T07:09:24.919Z,10
2018-02-15T07:10:47.071Z,10
2018-02-15T07:12:08.956Z,15
2018-02-15T07:13:30.871Z,15
2018-02-15T07:14:52.752Z,15
2018-02-15T07:16:14.615Z,15
2018-02-15T07:17:36.232Z,15
2018-02-15T07:18:57.853Z,15
2018-02-15T07:20:19.730Z,15
2018-02-15T07:21:41.121Z,15
2018-02-15T07:23:02.825Z,15
2018-02-15T07:24:24.993Z,15
2018-02-15T07:25:46.718Z,10
2018-02-15T07:27:08.690Z,15
2018-02-15T07:28:30.604Z,15
2018-02-15T07:29:52.478Z,15
2018-02-15T07:31:14.091Z,15
2018-02-15T07:32:35.941Z,15
2018-02-15T07:33:57.300Z,20
2018-02-15T07:35:19.207Z,20
2018-02-15T07:36:41.460Z,20
2018-02-15T07:38:03.581Z,20
2018-02-15T07:39:25.452Z,20
2018-02-15T07:40:47.081Z,20
2018-02-15T07:42:08.980Z,20
2018-02-15T07:43:31.115Z,20
2018-02-15T07:44:52.991Z,20
2018-02-15T07:46:14.662Z,20
2018-02-15T07:47:36.543Z,25
2018-02-15T07:48:58.682Z,25
2018-02-15T07:50:20.292Z,30
2018-02-15T07:51:42.142Z,30
2018-02-15T07:53:04.001Z,35
2018-02-15T07:54:25.338Z,35
2018-02-15T07:55:47.212Z,35
2018-02-15T07:57:09.352Z,35
2018-02-15T07:58:31.514Z,35
2018-02-15T07:59:53.116Z,40
2018-02-15T08:01:14.983Z,45
2018-02-15T08:02:37.136Z,45
2018-02-15T08:03:59.059Z,45
2018-02-15T08:05:20.402Z,50
2018-02-15T08:06:42.279Z,55
2018-02-15T08:08:04.415Z,55
2018-02-15T08:09:26.350Z,55
2018-02-15T08:10:48.492Z,55
2018-02-15T08:12:10.627Z,60
2018-02-15T08:13:32.244Z,65
2018-02-15T08:14:53.875Z,65
2018-02-15T08:16:15.486Z,60
2018-02-15T08:17:37.143Z,60
2018-02-15T08:18:59.281Z,60
2018-02-15T08:20:21.158Z,60
2018-02-15T08:21:43.013Z,65
2018-02-15T08:23:05.205Z,65
2018-02-15T08:24:27.094Z,70
2018-02-15T08:25:48.997Z,70
2018-02-15T08:27:11.142Z,70
2018-02-15T08:28:33.286Z,70
2018-02-15T08:29:55.151Z,70
2018-02-15T08:31:17.297Z,75
2018-02-15T08:32:38.658Z,80
2018-02-15T08:34:00.269Z,90
2018-02-15T08:35:22.123Z,90
2018-02-15T08:36:44.276Z,85
2018-02-15T08:38:06.146Z,75
2018-02-15T08:39:27.253Z,80
2018-02-15T08:40:48.650Z,80
2018-02-15T08:42:10.251Z,80
2018-02-15T08:43:31.851Z,75
2018-02-15T08:44:53.479Z,70
2018-02-15T08:46:14.819Z,65
2018-02-15T08:47:36.432Z,60
2018-02-15T08:48:58.563Z,60
2018-02-15T08:50:19.939Z,65
2018-02-15T08:51:41.541Z,75
2018-02-15T08:53:03.422Z,85
2018-02-15T08:54:25.441Z,90
2018-02-15T08:55:47.581Z,95
2018-02-15T08:57:09.442Z,100
2018-02-15T08:58:31.622Z,100
2018-02-15T08:59:53.787Z,95
2018-02-15T09:01:15.664Z,90
2018-02-15T09:02:37.932Z,90
2018-02-15T09:04:00.065Z,85
2018-02-15T09:05:21.942Z,80
2018-02-15T09:06:43.891Z,80
2018-02-15T09:08:06.026Z,90
2018-02-15T09:09:28.026Z,100
2018-02-15T09:10:49.652Z,100
2018-02-15T09:12:11.594Z,90
2018-02-15T09:13:33.212Z,85
2018-02-15T09:14:55.348Z,80
2018-02-15T09:16:16.951Z,75
2018-02-15T09:18:11.002Z,85
2018-02-15T09:19:33.143Z,90
2018-02-15T09:20:55.054Z,95
2018-02-15T09:22:16.934Z,100
2018-02-15T09:23:39.334Z,90
2018-02-15T09:25:00.981Z,80
2018-02-15T09:26:23.122Z,80
2018-02-15T09:27:45.272Z,80
2018-02-15T09:29:07.532Z,80
2018-02-15T09:30:29.712Z,80
2018-02-15T09:31:51.527Z,90
2018-02-15T09:33:13.714Z,110
2018-02-15T09:34:35.914Z,130
2018-02-15T09:35:58.121Z,155
2018-02-15T09:37:20.244Z,160
2018-02-15T09:38:42.121Z,160
2018-02-15T09:40:04.358Z,145
2018-02-15T09:41:58.140Z,140
2018-02-15T09:43:20.399Z,135
2018-02-15T09:44:42.599Z,140
2018-02-15T09:46:04.641Z,140
2018-02-15T09:47:25.959Z,125
2018-02-15T09:48:47.562Z,115
2018-02-15T09:50:09.231Z,100
2018-02-15T09:51:31.236Z,100
2018-02-15T09:52:53.369Z,95
2018-02-15T09:54:15.232Z,95
2018-02-15T09:55:36.849Z,95
2018-02-15T09:56:59.027Z,90
2018-02-15T09:58:20.370Z,75
2018-02-15T09:59:42.315Z,75
2018-02-15T10:01:04.220Z,75
2018-02-15T10:02:25.828Z,80
2018-02-15T10:03:47.703Z,85
2018-02-15T10:05:09.563Z,85
2018-02-15T10:06:31.712Z,90
2018-02-15T10:07:53.599Z,95
2018-02-15T10:09:15.350Z,95
2018-02-15T10:10:37.583Z,90
2018-02-15T10:11:59.606Z,95
2018-02-15T10:13:21.261Z,95
2018-02-15T10:14:43.410Z,100
2018-02-15T10:16:05.152Z,100
2018-02-15T10:17:26.811Z,100
2018-02-15T10:18:48.963Z,100
2018-02-15T10:20:10.591Z,105
2018-02-15T10:21:32.208Z,105
2018-02-15T10:22:53.830Z,115
2018-02-15T10:24:15.430Z,115
2018-02-15T10:25:37.595Z,130
2018-02-15T10:26:59.764Z,115
2018-02-15T10:28:21.902Z,110
2018-02-15T10:29:43.662Z,130
2018-02-15T10:31:05.935Z,130
2018-02-15T10:32:28.223Z,115
2018-02-15T10:33:50.366Z,120
2018-02-15T10:35:12.262Z,120
2018-02-15T10:36:34.133Z,110
2018-02-15T10:37:55.723Z,115
2018-02-15T10:39:17.386Z,120
2018-02-15T10:40:39.018Z,125
2018-02-15T10:42:01.176Z,125
2018-02-15T10:43:23.060Z,105
2018-02-15T10:44:45.017Z,115
2018-02-15T10:46:06.882Z,115
2018-02-15T10:47:28.762Z,125
2018-02-15T10:48:50.363Z,130
2018-02-15T10:50:11.952Z,120
2018-02-15T10:51:33.851Z,115
2018-02-15T10:52:55.802Z,105
2018-02-15T10:54:17.398Z,105
2018-02-15T10:55:39.312Z,100
2018-02-15T10:57:00.935Z,90
2018-02-15T10:58:22.536Z,85
2018-02-15T10:59:43.895Z,85
2018-02-15T11:01:05.501Z,90
2018-02-15T11:02:27.396Z,105
2018-02-15T11:03:49.003Z,110
2018-02-15T11:05:11.135Z,105
2018-02-15T11:06:33.292Z,85
2018-02-15T11:07:55.143Z,85
2018-02-15T11:09:17.349Z,80
2018-02-15T11:10:39.284Z,55
2018-02-15T11:12:01.437Z,65
2018-02-15T11:13:23.345Z,70
2018-02-15T11:14:44.698Z,95
2018-02-15T11:16:06.334Z,95
2018-02-15T11:17:28.292Z,85
2018-02-15T11:18:50.438Z,70
2018-02-15T11:20:12.384Z,85
2018-02-15T11:21:34.268Z,100
2018-02-15T11:22:56.131Z,95
2018-02-15T11:24:18.428Z,85
2018-02-15T11:25:40.560Z,105
2018-02-15T11:27:02.707Z,95
2018-02-15T11:28:24.369Z,100
2018-02-15T11:29:46.005Z,90
2018-02-15T11:31:08.134Z,90
2018-02-15T11:32:30.059Z,70
2018-02-15T11:33:51.981Z,85
2018-02-15T11:35:13.592Z,100
2018-02-15T11:36:35.565Z,100
2018-02-15T11:37:57.161Z,95
2018-02-15T11:39:18.568Z,80
2018-02-15T11:40:40.176Z,60
2018-02-15T11:42:01.942Z,65
2018-02-15T11:43:23.823Z,60
2018-02-15T11:44:45.700Z,65
2018-02-15T11:46:07.577Z,70
2018-02-15T11:47:29.202Z,70
2018-02-15T11:48:51.213Z,65
2018-02-15T11:50:13.462Z,90
2018-02-15T11:51:35.637Z,70
2018-02-15T11:52:57.533Z,60
2018-02-15T11:54:19.646Z,65
2018-02-15T11:55:42.082Z,75
2018-02-15T11:57:03.974Z,75
2018-02-15T11:58:25.572Z,75
2018-02-15T11:59:47.209Z,85
2018-02-15T12:01:09.077Z,65
2018-02-15T12:02:30.960Z,65
2018-02-15T12:03:53.206Z,70
2018-02-15T12:05:14.959Z,90
2018-02-15T12:06:36.565Z,100
2018-02-15T12:07:58.458Z,90
2018-02-15T12:09:20.592Z,105
2018-02-15T12:10:42.248Z,105
2018-02-15T12:12:04.165Z,95
2018-02-15T12:13:25.509Z,85
2018-02-15T12:14:47.660Z,85
2018-02-15T12:16:09.272Z,80
2018-02-15T12:17:31.829Z,80
2018-02-15T12:18:53.435Z,80
2018-02-15T12:20:15.607Z,80
2018-02-15T12:21:37.814Z,75
2018-02-15T12:22:59.958Z,60
2018-02-15T12:24:21.561Z,55
2018-02-15T12:25:43.447Z,55
2018-02-15T12:27:05.302Z,55
2018-02-15T12:28:27.459Z,65
2018-02-15T12:29:49.640Z,75
2018-02-15T12:31:11.765Z,70
2018-02-15T12:32:33.672Z,60
2018-02-15T12:33:55.865Z,60
2018-02-15T12:35:18.036Z,60
2018-02-15T12:36:39.923Z,55
2018-02-15T12:38:01.792Z,50
2018-02-15T12:39:23.694Z,40
2018-02-15T12:40:45.301Z,45
2018-02-15T12:42:07.232Z,60
2018-02-15T12:43:29.374Z,60
2018-02-15T12:44:51.513Z,55
2018-02-15T12:46:13.409Z,45
2018-02-15T12:47:35.302Z,50
2018-02-15T12:48:57.457Z,70
2018-02-15T12:50:19.050Z,70
2018-02-15T12:51:41.212Z,60
2018-02-15T12:53:03.499Z,70
2018-02-15T12:54:25.222Z,60
2018-02-15T12:55:47.353Z,60
2018-02-15T12:57:09.274Z,40
2018-02-15T12:58:31.427Z,35
2018-02-15T12:59:53.554Z,40
2018-02-15T13:01:15.984Z,55
2018-02-15T13:02:37.897Z,65
2018-02-15T13:03:59.627Z,50
2018-02-15T13:05:21.241Z,40
2018-02-15T13:06:43.187Z,40
2018-02-15T13:08:05.340Z,50
2018-02-15T13:09:26.713Z,70
2018-02-15T13:10:48.653Z,60
2018-02-15T13:12:10.345Z,50
2018-02-15T13:13:32.575Z,50
2018-02-15T13:14:54.728Z,50
2018-02-15T13:16:16.694Z,45
2018-02-15T13:17:38.416Z,60
2018-02-15T13:19:00.576Z,75
2018-02-15T13:20:22.303Z,60
2018-02-15T13:21:43.929Z,35
2018-02-15T13:23:05.786Z,35
2018-02-15T13:24:27.414Z,60
2018-02-15T13:25:49.623Z,80
2018-02-15T13:27:10.719Z,75
2018-02-15T13:28:32.837Z,60
2018-02-15T13:29:54.185Z,55
2018-02-15T13:31:16.074Z,50
2018-02-15T13:32:38.217Z,50
2018-02-15T13:34:00.076Z,70
2018-02-15T13:35:21.769Z,60
2018-02-15T13:36:43.374Z,65
2018-02-15T13:38:04.981Z,65
2018-02-15T13:39:27.308Z,65
2018-02-15T13:40:49.437Z,65
2018-02-15T13:42:11.367Z,65
2018-02-15T13:43:33.515Z,60
2018-02-15T13:44:54.882Z,50
2018-02-15T13:46:16.789Z,50
2018-02-15T13:47:38.157Z,55
2018-02-15T13:49:00.316Z,65
2018-02-15T13:50:22.624Z,85
2018-02-15T13:51:44.572Z,105
2018-02-15T13:53:06.730Z,105
2018-02-15T13:54:29.015Z,100
2018-02-15T13:55:51.145Z,65
2018-02-15T13:57:12.496Z,65
2018-02-15T13:58:34.395Z,60
2018-02-15T13:59:56.445Z,65
2018-02-15T14:01:18.365Z,65
2018-02-15T14:02:40.255Z,65
2018-02-15T14:04:02.434Z,55
2018-02-15T14:05:24.317Z,55
2018-02-15T14:06:46.568Z,60
2018-02-15T14:08:08.721Z,65
2018-02-15T14:09:30.985Z,70
2018-02-15T14:10:53.126Z,80
2018-02-15T14:12:15.028Z,60
2018-02-15T14:13:37.266Z,60
2018-02-15T14:14:59.165Z,60
2018-02-15T14:16:21.053Z,60
2018-02-15T14:17:43.238Z,65
2018-02-15T14:19:05.452Z,60
2018-02-15T14:20:27.588Z,60
2018-02-15T14:21:49.494Z,55
2018-02-15T14:23:11.628Z,55
2018-02-15T14:24:33.808Z,50
2018-02-15T14:25:55.429Z,55
2018-02-15T14:27:17.051Z,55
2018-02-15T14:28:38.951Z,55
2018-02-15T14:30:00.956Z,55
2018-02-15T14:31:22.642Z,55
2018-02-15T14:32:44.874Z,50
2018-02-15T14:34:06.764Z,55
2018-02-15T14:35:29.102Z,55
2018-02-15T14:36:51.269Z,65
2018-02-15T14:38:13.151Z,60
2018-02-15T14:39:35.035Z,65
2018-02-15T14:40:57.379Z,60
2018-02-15T14:42:19.094Z,55
2018-02-15T14:43:41.000Z,50
2018-02-15T14:45:03.219Z,40
2018-02-15T14:46:24.859Z,40
2018-02-15T14:47:46.746Z,40
2018-02-15T14:49:08.674Z,40
2018-02-15T14:50:30.834Z,40
2018-02-15T14:51:52.997Z,40
2018-02-15T14:53:15.208Z,30
2018-02-15T14:54:37.413Z,25
2018-02-15T14:55:59.150Z,30
2018-02-15T14:57:20.776Z,25
2018-02-15T14:58:42.730Z,25
2018-02-15T15:00:04.632Z,30
2018-02-15T15:01:26.783Z,25
2018-02-15T15:02:48.720Z,20
2018-02-15T15:04:10.605Z,15
2018-02-15T15:05:32.842Z,20
2018-02-15T15:06:54.743Z,25
2018-02-15T15:08:16.403Z,25
2018-02-15T15:09:37.811Z,25
2018-02-15T15:10:59.856Z,20
2018-02-15T15:12:21.815Z,15
2018-02-15T15:13:43.718Z,15
2018-02-15T15:15:05.484Z,10
2018-02-15T15:16:27.764Z,15
2018-02-15T15:17:50.310Z,25
2018-02-15T15:19:11.947Z,25
2018-02-15T15:20:34.114Z,25
2018-02-15T15:21:56.283Z,25
2018-02-15T15:23:18.477Z,20
2018-02-15T15:24:40.375Z,20
2018-02-15T15:26:02.521Z,15
2018-02-15T15:27:24.492Z,20
2018-02-15T15:28:46.368Z,20
2018-02-15T15:30:08.294Z,20
2018-02-15T15:31:30.184Z,20
2018-02-15T15:32:52.393Z,25
2018-02-15T15:34:14.529Z,25
2018-02-15T15:35:36.757Z,30
2018-02-15T15:36:58.146Z,25
2018-02-15T15:38:20.037Z,25
2018-02-15T15:39:41.963Z,15
2018-02-15T15:41:04.153Z,10
2018-02-15T15:42:25.844Z,10
2018-02-15T15:43:47.754Z,10
2018-02-15T15:45:09.788Z,5
2018-02-15T15:46:31.517Z,5
2018-02-15T15:47:53.684Z,5
2018-02-15T15:49:15.320Z,5
2018-02-15T15:50:37.456Z,5
2018-02-15T15:52:31.495Z,10
2018-02-15T15:53:53.725Z,10
2018-02-15T15:55:15.778Z,10
2018-02-15T15:56:37.773Z,15
2018-02-15T15:57:59.505Z,10
2018-02-15T15:59:21.703Z,10
2018-02-15T16:00:43.925Z,5
2018-02-15T16:02:05.842Z,5
2018-02-15T16:03:27.889Z,5
2018-02-15T16:04:50.141Z,5
2018-02-15T16:06:12.331Z,10
2018-02-15T16:07:34.525Z,5
2018-02-15T16:08:56.686Z,5
2018-02-15T16:10:18.395Z,5
2018-02-15T16:11:40.333Z,5
2018-02-15T16:13:02.287Z,5
2018-02-15T16:14:24.304Z,5
2018-02-15T16:15:46.224Z,5
2018-02-15T16:17:07.851Z,5
2018-02-15T16:18:29.797Z,5
2018-02-15T16:19:51.523Z,0
2018-02-15T16:21:13.806Z,0
2018-02-15T16:22:36.115Z,0
2018-02-15T16:23:58.354Z,0
2018-02-15T16:25:20.527Z,0
2018-02-15T16:26:42.712Z,0
2018-02-15T16:28:04.915Z,0
2018-02-15T16:29:27.228Z,0
2018-02-15T16:30:49.195Z,0
2018-02-15T16:32:11.365Z,0
2018-02-15T16:33:33.535Z,0
2018-02-15T16:34:55.475Z,0
2018-02-15T16:36:17.754Z,0
2018-02-15T16:37:39.678Z,0
2018-02-15T16:39:01.655Z,0
2018-02-15T16:40:23.848Z,0
2018-02-15T16:41:45.795Z,0
2018-02-15T16:43:07.959Z,0
2018-02-15T16:44:29.919Z,0
2018-02-15T16:45:52.135Z,0
2018-02-15T16:47:14.317Z,0
2018-02-15T16:48:36.496Z,0
2018-02-15T16:49:58.673Z,0
2018-02-15T16:51:20.343Z,0
2018-02-15T16:52:42.239Z,0
2018-02-15T16:54:04.401Z,0
2018-02-15T16:55:26.974Z,0
2018-02-15T16:56:48.684Z,0
2018-02-15T16:58:10.615Z,0
2018-02-15T16:59:32.269Z,0
2018-02-15T17:00:54.313Z,0
2018-02-15T17:02:16.490Z,0
2018-02-15T17:03:38.397Z,0
2018-02-15T17:05:00.644Z,0
2018-02-15T17:06:22.514Z,0
2018-02-15T17:07:44.668Z,0
2018-02-15T17:09:06.597Z,0
2018-02-15T17:10:28.222Z,0
2018-02-15T17:11:50.410Z,0
2018-02-15T17:13:12.059Z,0
2018-02-15T17:14:33.992Z,0
2018-02-15T17:15:56.184Z,0
2018-02-15T17:17:17.942Z,0
2018-02-15T17:18:39.866Z,0
2018-02-15T17:20:02.110Z,0
2018-02-15T17:21:24.453Z,0
2018-02-15T17:22:46.313Z,0
2018-02-15T17:24:08.733Z,0
2018-02-15T17:25:30.904Z,0
2018-02-15T17:26:53.081Z,0
2018-02-15T17:28:15.248Z,0
2018-02-15T17:29:37.135Z,0
2018-02-15T17:30:59.296Z,0
2018-02-15T17:32:21.472Z,0
2018-02-15T17:33:43.751Z,0
2018-02-15T17:35:05.945Z,0
2018-02-15T17:36:28.184Z,0
2018-02-15T17:37:50.369Z,0
2018-02-15T17:39:12.272Z,0
2018-02-15T17:40:34.485Z,0
2018-02-15T17:41:56.671Z,0
2018-02-15T17:43:18.323Z,0
2018-02-15T17:44:40.556Z,0
2018-02-15T17:46:02.712Z,0
2018-02-15T17:47:24.910Z,0
2018-02-15T17:48:47.080Z,0
2018-02-15T17:50:09.090Z,0
2018-02-15T17:51:31.389Z,0
2018-02-15T17:52:53.069Z,0
2018-02-15T17:54:15.240Z,0
2018-02-15T17:55:36.881Z,0
2018-02-15T17:56:58.797Z,0
2018-02-15T17:58:20.952Z,0
2018-02-15T17:59:43.131Z,0
2018-02-15T18:01:05.327Z,0
2018-02-15T18:02:27.494Z,0
2018-02-15T18:03:49.749Z,0
2018-02-15T18:05:11.932Z,0
2018-02-15T18:06:34.103Z,0
2018-02-15T18:07:56.301Z,0
2018-02-15T18:09:18.211Z,0
2018-02-15T18:10:40.466Z,0
2018-02-15T18:12:02.097Z,0
2018-02-15T18:13:24.017Z,0
2018-02-15T18:14:45.997Z,0
2018-02-15T18:16:07.995Z,0
2018-02-15T18:17:30.190Z,0
2018-02-15T18:18:51.846Z,0
2018-02-15T18:20:14.103Z,0
2018-02-15T18:21:35.794Z,0
2018-02-15T18:22:57.991Z,0
2018-02-15T18:24:19.953Z,0
2018-02-15T18:25:42.190Z,0
2018-02-15T18:27:03.870Z,0
2018-02-15T18:28:26.059Z,0
2018-02-15T18:29:48.017Z,0
2018-02-15T18:31:10.194Z,0
2018-02-15T18:32:31.884Z,0
2018-02-15T18:33:54.098Z,0
2018-02-15T18:35:16.012Z,0
2018-02-15T18:36:37.950Z,0
2018-02-15T18:38:00.165Z,0
2018-02-15T18:39:22.181Z,0
2018-02-15T18:40:44.462Z,0
2018-02-15T18:42:06.594Z,0
2018-02-15T18:43:28.834Z,0
2018-02-15T18:44:50.768Z,0
2018-02-15T18:46:12.413Z,0
2018-02-15T18:47:34.578Z,0
2018-02-15T18:48:56.862Z,0
2018-02-15T18:50:18.762Z,0
2018-02-15T18:51:40.697Z,0
2018-02-15T18:53:03.018Z,0
2018-02-15T18:54:25.216Z,0
2018-02-15T18:55:47.441Z,0
2018-02-15T18:57:09.377Z,0
2018-02-15T18:58:31.734Z,0
2018-02-15T18:59:53.745Z,0
2018-02-15T19:01:16.151Z,0
2018-02-15T19:02:38.188Z,0
2018-02-15T19:04:00.222Z,0
2018-02-15T19:05:22.197Z,0
2018-02-15T19:06:44.696Z,0
2018-02-15T19:08:06.771Z,0
2018-02-15T19:09:29.165Z,0
2018-02-15T19:10:51.395Z,0
2018-02-15T19:12:13.651Z,0
2018-02-15T19:13:35.948Z,0
2018-02-15T19:14:58.279Z,0
2018-02-15T19:16:20.686Z,0
2018-02-15T19:17:42.933Z,0
2018-02-15T19:19:05.184Z,0
2018-02-15T19:20:27.750Z,0
2018-02-15T19:21:50.056Z,0
2018-02-15T19:23:11.872Z,0
2018-02-15T19:24:34.130Z,0
2018-02-15T19:25:56.642Z,0
2018-02-15T19:27:19.333Z,0
2018-02-15T19:28:41.741Z,0
2018-02-15T19:30:03.754Z,0
2018-02-15T19:31:25.459Z,0
2018-02-15T19:32:47.544Z,0
2018-02-15T19:34:10.013Z,0
2018-02-15T19:35:32.447Z,0
2018-02-15T19:36:54.954Z,0
2018-02-15T19:38:17.208Z,0
2018-02-15T19:39:39.498Z,0
2018-02-15T19:41:01.813Z,0
2018-02-15T19:42:23.805Z,0
2018-02-15T19:43:45.900Z,0
2018-02-15T19:45:08.219Z,0
2018-02-15T19:46:30.524Z,0
2018-02-15T19:47:52.760Z,0
2018-02-15T19:49:14.996Z,0
2018-02-15T19:50:37.263Z,0